createdAt,value
2018-05-03T00:00:24.633Z,91.89
2018-05-03T00:01:25.716Z,91.89
2018-05-03T00:02:25.714Z,91.89
2018-05-03T00:03:25.418Z,91.89
2018-05-03T00:04:26.797Z,92.08
2018-05-03T00:05:25.914Z,92.27
2018-05-03T00:06:25.016Z,92.46
2018-05-03T00:07:25.250Z,92.55
2018-05-03T00:08:25.907Z,92.65
2018-05-03T00:09:27.058Z,92.74
2018-05-03T00:10:45.688Z,92.74
2018-05-03T00:11:45.645Z,92.84
2018-05-03T00:12:46.146Z,92.94
2018-05-03T00:14:06.825Z,93.13
2018-05-03T00:15:27.734Z,93.22
2018-05-03T00:16:28.455Z,93.22
2018-05-03T00:17:28.108Z,93.22
2018-05-03T00:18:48.748Z,93.51
2018-05-03T00:19:49.236Z,93.32
2018-05-03T00:20:48.946Z,93.22
2018-05-03T00:21:48.687Z,93.13
2018-05-03T00:22:49.735Z,93.13
2018-05-03T00:23:49.406Z,93.03
2018-05-03T00:24:49.537Z,92.94
2018-05-03T00:25:49.535Z,92.74
2018-05-03T00:26:49.426Z,92.65
2018-05-03T00:27:48.918Z,92.74
2018-05-03T00:28:48.517Z,92.74
2018-05-03T00:29:49.351Z,92.65
2018-05-03T00:30:49.291Z,92.65
2018-05-03T00:31:49.355Z,92.74
2018-05-03T00:32:49.201Z,92.74
2018-05-03T00:33:49.116Z,92.74
2018-05-03T00:34:48.643Z,92.84
2018-05-03T00:35:49.103Z,92.84
2018-05-03T00:36:48.819Z,92.84
2018-05-03T00:37:48.434Z,92.74
2018-05-03T00:39:10.327Z,92.94
2018-05-03T00:40:31.017Z,93.03
2018-05-03T00:41:30.842Z,93.13
2018-05-03T00:42:31.544Z,93.13
2018-05-03T00:43:31.299Z,93.13
2018-05-03T00:44:30.979Z,93.22
2018-05-03T00:46:33.460Z,93.27
2018-05-03T00:47:34.485Z,93.37
2018-05-03T00:48:34.349Z,93.55
2018-05-03T00:49:34.196Z,93.46
2018-05-03T00:50:33.940Z,93.55
2018-05-03T00:51:34.047Z,93.55
2018-05-03T00:52:33.616Z,93.55
2018-05-03T00:53:34.366Z,93.65
2018-05-03T00:54:34.069Z,93.55
2018-05-03T00:55:33.941Z,93.74
2018-05-03T00:56:33.571Z,93.84
2018-05-03T00:57:34.320Z,93.84
2018-05-03T00:58:34.311Z,93.94
2018-05-03T00:59:34.435Z,93.94
2018-05-03T01:00:34.426Z,93.94
2018-05-03T01:01:34.160Z,93.94
2018-05-03T01:02:33.938Z,94.03
2018-05-03T01:03:33.967Z,94.13
2018-05-03T01:04:33.920Z,94.13
2018-05-03T01:05:33.831Z,94.22
2018-05-03T01:06:33.509Z,94.22
2018-05-03T01:07:34.353Z,94.32
2018-05-03T01:08:34.330Z,94.32
2018-05-03T01:09:54.312Z,94.60
2018-05-03T01:10:55.376Z,94.70
2018-05-03T01:11:55.310Z,94.79
2018-05-03T01:13:16.146Z,94.89
2018-05-03T01:14:15.767Z,95.08
2018-05-03T01:15:16.803Z,95.27
2018-05-03T01:16:16.890Z,95.17
2018-05-03T01:17:17.008Z,95.27
2018-05-03T01:18:16.578Z,95.27
2018-05-03T01:19:16.622Z,95.36
2018-05-03T01:20:16.533Z,95.46
2018-05-03T01:21:16.570Z,95.46
2018-05-03T01:22:17.354Z,95.46
2018-05-03T01:23:15.965Z,95.36
2018-05-03T01:24:16.914Z,95.36
2018-05-03T01:25:16.645Z,95.46
2018-05-03T01:26:37.172Z,95.56
2018-05-03T01:27:58.599Z,95.65
2018-05-03T01:28:58.257Z,95.75
2018-05-03T01:29:58.837Z,95.84
2018-05-03T01:30:58.390Z,95.84
2018-05-03T01:31:59.454Z,95.94
2018-05-03T01:32:59.359Z,95.94
2018-05-03T01:33:59.370Z,96.12
2018-05-03T01:34:59.028Z,96.12
2018-05-03T01:35:58.909Z,96.22
2018-05-03T01:36:58.491Z,96.31
2018-05-03T01:38:39.894Z,96.31
2018-05-03T01:39:39.545Z,96.31
2018-05-03T01:40:40.103Z,96.41
2018-05-03T01:41:40.116Z,96.51
2018-05-03T01:42:40.095Z,96.51
2018-05-03T01:43:39.710Z,96.51
2018-05-03T01:44:40.383Z,96.60
2018-05-03T01:45:39.908Z,96.60
2018-05-03T01:46:40.033Z,96.60
2018-05-03T01:47:39.813Z,96.60
2018-05-03T01:48:40.402Z,96.70
2018-05-03T01:49:40.418Z,96.79
2018-05-03T01:51:00.350Z,96.89
2018-05-03T01:52:00.882Z,96.89
2018-05-03T01:53:00.652Z,96.89
2018-05-03T01:54:01.479Z,96.89
2018-05-03T01:55:01.032Z,96.79
2018-05-03T01:56:00.848Z,96.79
2018-05-03T01:57:00.511Z,96.79
2018-05-03T01:58:01.522Z,96.89
2018-05-03T01:59:01.559Z,96.98
2018-05-03T02:00:01.602Z,97.17
2018-05-03T02:01:01.180Z,97.17
2018-05-03T02:02:01.179Z,97.17
2018-05-03T02:03:01.153Z,97.22
2018-05-03T02:04:00.766Z,97.13
2018-05-03T02:05:00.733Z,97.03
2018-05-03T02:06:01.748Z,97.03
2018-05-03T02:07:00.654Z,97.03
2018-05-03T02:08:00.687Z,96.94
2018-05-03T02:09:00.777Z,97.03
2018-05-03T02:10:00.996Z,97.13
2018-05-03T02:11:01.052Z,97.22
2018-05-03T02:12:01.218Z,97.22
2018-05-03T02:13:01.279Z,97.22
2018-05-03T02:14:00.845Z,97.13
2018-05-03T02:15:00.872Z,97.03
2018-05-03T02:16:00.779Z,97.03
2018-05-03T02:17:00.647Z,96.94
2018-05-03T02:18:01.223Z,96.94
2018-05-03T02:19:00.715Z,96.94
2018-05-03T02:20:21.195Z,97.03
2018-05-03T02:21:21.806Z,97.13
2018-05-03T02:22:21.826Z,97.13
2018-05-03T02:23:21.459Z,97.22
2018-05-03T02:24:21.227Z,97.31
2018-05-03T02:25:22.311Z,97.41
2018-05-03T02:26:22.066Z,97.41
2018-05-03T02:27:22.189Z,97.41
2018-05-03T02:28:22.306Z,97.51
2018-05-03T02:29:22.362Z,97.60
2018-05-03T02:30:21.116Z,97.79
2018-05-03T02:31:22.807Z,97.79
2018-05-03T02:32:21.557Z,97.89
2018-05-03T02:33:21.085Z,97.99
2018-05-03T02:34:43.031Z,98.03
2018-05-03T02:35:44.071Z,98.03
2018-05-03T02:36:43.017Z,98.03
2018-05-03T02:37:43.067Z,98.03
2018-05-03T02:39:03.519Z,98.03
2018-05-03T02:40:04.471Z,98.13
2018-05-03T02:41:04.406Z,98.22
2018-05-03T02:42:04.105Z,98.22
2018-05-03T02:44:04.938Z,98.41
2018-05-03T02:45:06.035Z,98.41
2018-05-03T02:46:06.006Z,98.60
2018-05-03T02:47:05.977Z,98.60
2018-05-03T02:48:06.096Z,98.70
2018-05-03T02:49:05.633Z,98.79
2018-05-03T02:50:05.516Z,98.89
2018-05-03T02:51:05.013Z,98.70
2018-05-03T02:52:06.057Z,98.70
2018-05-03T02:53:05.604Z,98.79
2018-05-03T02:54:05.303Z,98.79
2018-05-03T02:55:46.695Z,98.79
2018-05-03T02:56:47.319Z,98.99
2018-05-03T02:58:08.032Z,98.99
2018-05-03T02:59:09.099Z,99.18
2018-05-03T03:00:09.173Z,99.27
2018-05-03T03:01:29.292Z,99.08
2018-05-03T03:02:30.430Z,99.08
2018-05-03T03:03:29.305Z,98.79
2018-05-03T03:04:29.872Z,98.79
2018-05-03T03:05:29.899Z,98.79
2018-05-03T03:06:29.669Z,98.89
2018-05-03T03:07:30.531Z,98.89
2018-05-03T03:08:30.140Z,99.18
2018-05-03T03:09:29.782Z,99.27
2018-05-03T03:10:29.723Z,99.37
2018-05-03T03:11:29.279Z,99.46
2018-05-03T03:12:29.812Z,99.46
2018-05-03T03:13:29.753Z,99.37
2018-05-03T03:14:29.613Z,99.37
2018-05-03T03:15:29.329Z,99.37
2018-05-03T03:16:30.272Z,99.37
2018-05-03T03:17:29.960Z,99.27
2018-05-03T03:18:29.798Z,99.37
2018-05-03T03:19:29.648Z,99.65
2018-05-03T03:20:29.269Z,99.84
2018-05-03T03:21:29.853Z,99.94
2018-05-03T03:22:29.834Z,99.99
2018-05-03T03:23:29.697Z,99.99
2018-05-03T03:24:29.208Z,99.99
2018-05-03T03:25:50.397Z,99.99
2018-05-03T03:27:32.553Z,99.99
2018-05-03T03:29:14.485Z,99.99
2018-05-03T03:30:15.018Z,99.99
2018-05-03T03:31:14.919Z,99.99
2018-05-03T03:32:15.003Z,99.99
2018-05-03T03:33:14.555Z,99.99
2018-05-03T03:34:15.474Z,99.99
2018-05-03T03:35:15.029Z,99.99
2018-05-03T03:36:14.628Z,99.99
2018-05-03T03:37:14.687Z,99.99
2018-05-03T03:38:14.511Z,99.99
2018-05-03T03:39:34.618Z,99.99
2018-05-03T03:40:35.484Z,99.99
2018-05-03T03:41:56.299Z,99.99
2018-05-03T03:42:56.554Z,99.99
2018-05-03T03:43:56.571Z,99.99
2018-05-03T03:44:56.048Z,99.99
2018-05-03T03:45:56.550Z,99.99
2018-05-03T03:46:56.258Z,99.99
2018-05-03T03:47:57.303Z,99.99
2018-05-03T03:48:56.481Z,99.99
2018-05-03T03:49:56.595Z,99.99
2018-05-03T03:50:57.885Z,99.99
2018-05-03T03:51:56.905Z,99.99
2018-05-03T03:53:24.439Z,99.99
2018-05-03T03:54:24.688Z,99.99
2018-05-03T03:55:25.410Z,99.99
2018-05-03T03:56:24.557Z,99.99
2018-05-03T03:57:24.113Z,99.99
2018-05-03T03:58:26.876Z,99.99
2018-05-03T03:59:27.806Z,99.99
2018-05-03T04:00:26.288Z,99.99
2018-05-03T04:01:25.330Z,99.99
2018-05-03T04:02:27.949Z,99.99
2018-05-03T04:03:25.092Z,99.99
2018-05-03T04:04:31.021Z,99.99
2018-05-03T04:05:28.230Z,99.99
2018-05-03T04:06:28.059Z,99.99
2018-05-03T04:07:23.199Z,99.99
2018-05-03T04:08:22.535Z,99.99
2018-05-03T04:09:22.928Z,99.99
2018-05-03T04:10:29.790Z,99.99
2018-05-03T04:11:21.821Z,99.99
2018-05-03T04:12:22.956Z,99.99
2018-05-03T04:13:21.872Z,99.99
2018-05-03T04:14:22.568Z,99.99
2018-05-03T04:15:23.086Z,99.99
2018-05-03T04:16:23.583Z,99.99
2018-05-03T04:17:22.913Z,99.99
2018-05-03T04:18:22.801Z,99.99
2018-05-03T04:19:22.594Z,99.99
2018-05-03T04:20:22.610Z,99.99
2018-05-03T04:21:22.625Z,99.99
2018-05-03T04:22:43.271Z,99.99
2018-05-03T04:23:43.441Z,99.99
2018-05-03T04:24:43.474Z,99.99
2018-05-03T04:25:43.664Z,99.99
2018-05-03T04:26:43.731Z,99.99
2018-05-03T04:27:44.023Z,99.99
2018-05-03T04:28:44.178Z,99.99
2018-05-03T04:29:43.956Z,99.99
2018-05-03T04:30:44.262Z,99.99
2018-05-03T04:31:43.621Z,99.99
2018-05-03T04:32:43.764Z,99.99
2018-05-03T04:33:44.562Z,99.99
2018-05-03T04:35:04.592Z,99.99
2018-05-03T04:36:05.684Z,99.99
2018-05-03T04:37:05.142Z,99.99
2018-05-03T04:38:05.321Z,99.99
2018-05-03T04:39:25.417Z,99.99
2018-05-03T04:40:27.097Z,99.99
2018-05-03T04:41:26.295Z,99.99
2018-05-03T04:42:25.107Z,99.99
2018-05-03T04:43:25.382Z,99.99
2018-05-03T04:44:25.192Z,99.99
2018-05-03T04:45:47.524Z,99.99
2018-05-03T04:47:27.735Z,99.99
2018-05-03T04:48:28.559Z,99.99
2018-05-03T04:49:28.566Z,99.99
2018-05-03T04:50:28.730Z,99.99
2018-05-03T04:51:28.541Z,99.99
2018-05-03T04:52:28.347Z,99.99
2018-05-03T04:53:49.105Z,99.99
2018-05-03T04:54:50.346Z,99.99
2018-05-03T04:55:49.224Z,99.99
2018-05-03T04:57:10.891Z,99.99
2018-05-03T04:58:11.056Z,99.99
2018-05-03T04:59:33.498Z,99.99
2018-05-03T05:00:33.489Z,99.99
2018-05-03T05:01:34.659Z,99.99
2018-05-03T05:02:33.677Z,99.99
2018-05-03T05:03:54.574Z,99.99
2018-05-03T05:05:15.224Z,99.99
2018-05-03T05:06:57.768Z,99.99
2018-05-03T05:07:57.509Z,99.99
2018-05-03T05:08:58.753Z,99.99
2018-05-03T05:09:57.803Z,99.99
2018-05-03T05:10:57.866Z,99.99
2018-05-03T05:11:57.922Z,99.99
2018-05-03T05:12:58.152Z,99.99
2018-05-03T05:13:58.142Z,99.99
2018-05-03T05:14:57.954Z,99.99
2018-05-03T05:15:57.868Z,99.99
2018-05-03T05:17:18.717Z,99.99
2018-05-03T05:18:19.720Z,99.99
2018-05-03T05:19:18.430Z,99.99
2018-05-03T05:20:19.752Z,99.99
2018-05-03T05:21:19.367Z,99.99
2018-05-03T05:22:19.107Z,99.99
2018-05-03T05:23:39.444Z,99.99
2018-05-03T05:25:21.664Z,99.99
2018-05-03T05:26:21.447Z,99.99
2018-05-03T05:27:23.491Z,99.99
2018-05-03T05:28:22.699Z,99.99
2018-05-03T05:29:21.935Z,99.99
2018-05-03T05:30:21.901Z,99.99
2018-05-03T05:31:22.042Z,99.99
2018-05-03T05:32:22.233Z,99.99
2018-05-03T05:33:22.046Z,99.99
2018-05-03T05:34:21.719Z,99.99
2018-05-03T05:35:22.442Z,99.99
2018-05-03T05:36:22.282Z,99.94
2018-05-03T05:37:22.584Z,99.84
2018-05-03T05:38:43.167Z,99.55
2018-05-03T05:39:43.238Z,99.27
2018-05-03T05:40:43.343Z,98.79
2018-05-03T05:41:46.799Z,98.32
2018-05-03T05:43:33.451Z,98.13
2018-05-03T05:44:34.154Z,97.27
2018-05-03T05:45:34.152Z,97.08
2018-05-03T05:46:34.009Z,96.80
2018-05-03T05:47:34.328Z,96.51
2018-05-03T05:48:34.164Z,96.46
2018-05-03T05:49:56.309Z,95.89
2018-05-03T05:50:57.142Z,95.89
2018-05-03T05:51:56.839Z,95.61
2018-05-03T05:52:56.538Z,95.51
2018-05-03T05:53:56.342Z,94.93
2018-05-03T05:54:57.100Z,94.93
2018-05-03T05:55:57.090Z,94.84
2018-05-03T05:56:56.853Z,94.74
2018-05-03T05:57:56.888Z,94.56
2018-05-03T05:58:56.513Z,94.37
2018-05-03T05:59:57.510Z,93.79
2018-05-03T06:00:56.317Z,93.27
2018-05-03T06:01:57.102Z,93.17
2018-05-03T06:03:38.530Z,93.27
2018-05-03T06:04:38.898Z,93.17
2018-05-03T06:05:39.406Z,93.08
2018-05-03T06:06:39.444Z,92.65
2018-05-03T06:07:39.111Z,91.88
2018-05-03T06:08:59.275Z,91.60
2018-05-03T06:10:00.907Z,91.31
2018-05-03T06:10:59.628Z,90.83
2018-05-03T06:12:00.310Z,90.73
2018-05-03T06:13:00.211Z,90.83
2018-05-03T06:14:00.077Z,90.17
2018-05-03T06:14:59.874Z,89.50
2018-05-03T06:15:59.833Z,89.59
2018-05-03T06:16:59.733Z,89.59
2018-05-03T06:18:00.046Z,89.40
2018-05-03T06:19:00.149Z,89.25
2018-05-03T06:19:59.970Z,88.87
2018-05-03T06:21:20.598Z,88.78
2018-05-03T06:22:21.821Z,88.59
2018-05-03T06:23:21.860Z,87.87
2018-05-03T06:24:20.655Z,86.72
2018-05-03T06:25:22.445Z,85.52
2018-05-03T06:26:42.545Z,85.42
2018-05-03T06:27:42.613Z,85.90
2018-05-03T06:28:42.361Z,85.62
2018-05-03T06:29:43.114Z,85.33
2018-05-03T06:30:43.051Z,85.33
2018-05-03T06:31:43.444Z,84.85
2018-05-03T06:32:42.286Z,85.05
2018-05-03T06:33:43.037Z,84.80
2018-05-03T06:35:03.625Z,83.17
2018-05-03T06:36:03.298Z,81.74
2018-05-03T06:37:03.267Z,81.74
2018-05-03T06:38:24.579Z,82.28
2018-05-03T06:39:25.764Z,82.56
2018-05-03T06:40:24.866Z,82.03
2018-05-03T06:41:24.747Z,80.98
2018-05-03T06:42:25.540Z,81.02
2018-05-03T06:43:25.667Z,80.29
2018-05-03T06:44:25.552Z,78.42
2018-05-03T06:45:46.438Z,76.98
2018-05-03T06:46:47.229Z,76.92
2018-05-03T06:47:47.380Z,75.43
2018-05-03T06:49:34.332Z,72.59
2018-05-03T06:50:33.721Z,71.76
2018-05-03T06:51:33.906Z,70.99
2018-05-03T06:52:34.223Z,70.00
2018-05-03T06:53:56.588Z,70.79
2018-05-03T06:54:55.724Z,72.67
2018-05-03T06:56:16.424Z,73.47
2018-05-03T06:57:17.598Z,73.47
2018-05-03T06:58:16.254Z,73.47
2018-05-03T06:59:16.899Z,73.66
2018-05-03T07:00:17.037Z,72.99
2018-05-03T07:01:16.815Z,72.80
2018-05-03T07:02:37.573Z,72.27
2018-05-03T07:03:37.242Z,71.44
2018-05-03T07:04:38.507Z,70.99
2018-05-03T07:05:37.711Z,70.03
2018-05-03T07:06:37.487Z,69.93
2018-05-03T07:07:37.274Z,69.74
2018-05-03T07:08:38.405Z,69.46
2018-05-03T07:09:38.204Z,69.56
2018-05-03T07:10:38.031Z,69.56
2018-05-03T07:11:37.792Z,68.30
2018-05-03T07:12:37.659Z,68.98
2018-05-03T07:13:38.297Z,68.98
2018-05-03T07:14:59.049Z,69.26
2018-05-03T07:16:00.209Z,67.70
2018-05-03T07:17:00.261Z,66.00
2018-05-03T07:17:59.033Z,63.83
2018-05-03T07:18:59.720Z,63.25
2018-05-03T07:19:59.681Z,63.06
2018-05-03T07:20:59.524Z,63.54
2018-05-03T07:21:59.814Z,63.64
2018-05-03T07:22:59.629Z,64.18
2018-05-03T07:23:59.395Z,64.76
2018-05-03T07:24:59.906Z,64.66
2018-05-03T07:25:59.650Z,64.28
2018-05-03T07:27:20.220Z,64.18
2018-05-03T07:28:41.954Z,63.28
2018-05-03T07:29:41.814Z,61.19
2018-05-03T07:30:41.750Z,60.17
2018-05-03T07:31:41.952Z,60.00
2018-05-03T07:33:02.443Z,59.04
2018-05-03T07:34:03.200Z,59.20
2018-05-03T07:35:03.316Z,58.53
2018-05-03T07:36:03.522Z,58.85
2018-05-03T07:37:03.830Z,58.47
2018-05-03T07:38:03.001Z,59.20
2018-05-03T07:39:03.288Z,59.59
2018-05-03T07:40:03.415Z,59.69
2018-05-03T07:41:24.300Z,58.92
2018-05-03T07:42:47.140Z,58.15
2018-05-03T07:43:46.917Z,58.44
2018-05-03T07:44:47.170Z,58.44
2018-05-03T07:46:07.825Z,57.86
2018-05-03T07:47:07.975Z,58.17
2018-05-03T07:48:07.724Z,57.14
2018-05-03T07:49:08.069Z,56.27
2018-05-03T07:50:29.241Z,56.05
2018-05-03T07:51:29.412Z,56.32
2018-05-03T07:52:29.122Z,56.99
2018-05-03T07:53:29.085Z,57.18
2018-05-03T07:54:29.045Z,57.09
2018-05-03T07:55:51.146Z,56.12
2018-05-03T07:56:51.089Z,56.03
2018-05-03T07:57:51.295Z,55.77
2018-05-03T07:58:51.410Z,56.25
2018-05-03T07:59:51.347Z,56.57
2018-05-03T08:00:51.282Z,56.66
2018-05-03T08:01:51.246Z,55.79
2018-05-03T08:02:50.989Z,56.09
2018-05-03T08:04:11.862Z,55.70
2018-05-03T08:05:12.707Z,55.70
2018-05-03T08:06:32.924Z,55.87
2018-05-03T08:07:34.163Z,55.38
2018-05-03T08:08:33.994Z,55.16
2018-05-03T08:09:34.130Z,56.58
2018-05-03T08:10:33.979Z,56.87
2018-05-03T08:12:16.279Z,56.77
2018-05-03T08:13:16.668Z,55.62
2018-05-03T08:14:15.571Z,55.81
2018-05-03T08:15:16.374Z,56.00
2018-05-03T08:16:36.667Z,55.81
2018-05-03T08:17:37.471Z,55.26
2018-05-03T08:18:37.282Z,55.83
2018-05-03T08:19:37.202Z,56.03
2018-05-03T08:20:37.109Z,56.60
2018-05-03T08:21:37.259Z,56.54
2018-05-03T08:22:37.179Z,56.27
2018-05-03T08:23:57.540Z,55.05
2018-05-03T08:24:58.553Z,54.69
2018-05-03T08:25:58.411Z,54.11
2018-05-03T08:26:58.222Z,52.86
2018-05-03T08:27:58.275Z,51.41
2018-05-03T08:28:58.679Z,51.77
2018-05-03T08:29:58.052Z,51.99
2018-05-03T08:30:57.813Z,52.19
2018-05-03T08:31:58.550Z,52.09
2018-05-03T08:32:58.780Z,51.51
2018-05-03T08:33:58.029Z,50.23
2018-05-03T08:34:57.962Z,50.11
2018-05-03T08:35:58.137Z,50.30
2018-05-03T08:36:57.969Z,50.21
2018-05-03T08:37:57.782Z,50.01
2018-05-03T08:39:18.983Z,50.30
2018-05-03T08:40:19.362Z,51.14
2018-05-03T08:41:19.434Z,52.01
2018-05-03T08:42:19.555Z,52.47
2018-05-03T08:43:19.472Z,52.40
2018-05-03T08:44:19.223Z,52.08
2018-05-03T08:45:19.660Z,52.20
2018-05-03T08:46:19.469Z,51.87
2018-05-03T08:47:40.199Z,51.89
2018-05-03T08:48:40.369Z,51.05
2018-05-03T08:49:40.584Z,50.96
2018-05-03T08:50:41.009Z,49.90
2018-05-03T08:51:40.261Z,50.13
2018-05-03T08:52:40.008Z,48.88
2018-05-03T08:53:40.178Z,49.37
2018-05-03T08:54:40.141Z,47.96
2018-05-03T08:55:39.823Z,47.77
2018-05-03T08:56:41.036Z,46.84
2018-05-03T08:57:39.866Z,45.71
2018-05-03T08:58:40.514Z,45.03
2018-05-03T08:59:40.257Z,45.59
2018-05-03T09:00:40.009Z,45.88
2018-05-03T09:01:40.740Z,45.76
2018-05-03T09:02:40.614Z,45.86
2018-05-03T09:03:40.671Z,45.76
2018-05-03T09:04:40.583Z,45.98
2018-05-03T09:05:40.373Z,43.68
2018-05-03T09:06:40.204Z,42.68
2018-05-03T09:07:40.204Z,43.24
2018-05-03T09:08:40.142Z,44.12
2018-05-03T09:09:40.618Z,44.89
2018-05-03T09:10:40.639Z,45.20
2018-05-03T09:11:40.845Z,44.23
2018-05-03T09:12:40.697Z,43.09
2018-05-03T09:13:40.335Z,43.38
2018-05-03T09:14:40.433Z,42.71
2018-05-03T09:15:40.239Z,42.78
2018-05-03T09:16:39.922Z,41.64
2018-05-03T09:17:40.313Z,41.42
2018-05-03T09:18:40.659Z,41.31
2018-05-03T09:20:00.871Z,40.17
2018-05-03T09:21:01.859Z,40.58
2018-05-03T09:22:02.006Z,41.76
2018-05-03T09:23:02.227Z,39.74
2018-05-03T09:24:01.332Z,40.44
2018-05-03T09:25:01.464Z,39.59
2018-05-03T09:26:01.482Z,38.73
2018-05-03T09:27:01.300Z,39.12
2018-05-03T09:28:01.661Z,38.62
2018-05-03T09:29:01.592Z,39.29
2018-05-03T09:30:01.493Z,40.05
2018-05-03T09:31:01.796Z,39.20
2018-05-03T09:32:02.104Z,38.60
2018-05-03T09:33:02.373Z,40.19
2018-05-03T09:34:01.537Z,41.19
2018-05-03T09:35:01.796Z,41.17
2018-05-03T09:36:01.994Z,40.55
2018-05-03T09:37:01.032Z,41.52
2018-05-03T09:38:01.362Z,41.93
2018-05-03T09:39:01.632Z,41.15
2018-05-03T09:40:01.816Z,41.33
2018-05-03T09:41:01.938Z,42.29
2018-05-03T09:42:02.113Z,43.24
2018-05-03T09:43:00.893Z,43.74
2018-05-03T09:44:01.802Z,43.85
2018-05-03T09:45:02.092Z,42.33
2018-05-03T09:46:00.926Z,40.90
2018-05-03T09:47:02.129Z,41.67
2018-05-03T09:48:01.466Z,43.32
2018-05-03T09:49:01.849Z,42.93
2018-05-03T09:50:02.121Z,40.81
2018-05-03T09:51:01.278Z,39.57
2018-05-03T09:52:01.294Z,39.78
2018-05-03T09:53:01.577Z,40.09
2018-05-03T09:54:01.789Z,40.09
2018-05-03T09:55:01.997Z,39.76
2018-05-03T09:56:00.831Z,39.59
2018-05-03T09:57:23.423Z,38.83
2018-05-03T09:58:23.277Z,38.71
2018-05-03T09:59:23.444Z,39.67
2018-05-03T10:00:23.331Z,39.59
2018-05-03T10:01:23.620Z,40.77
2018-05-03T10:02:22.872Z,40.33
2018-05-03T10:03:23.089Z,40.05
2018-05-03T10:04:23.008Z,39.59
2018-05-03T10:05:23.147Z,38.37
2018-05-03T10:06:23.051Z,37.02
2018-05-03T10:07:43.814Z,36.63
2018-05-03T10:08:43.862Z,36.99
2018-05-03T10:09:43.711Z,36.58
2018-05-03T10:10:43.996Z,35.63
2018-05-03T10:11:43.970Z,35.72
2018-05-03T10:12:44.034Z,36.21
2018-05-03T10:13:43.902Z,35.82
2018-05-03T10:15:26.128Z,35.82
2018-05-03T10:16:26.199Z,35.82
2018-05-03T10:17:26.252Z,36.95
2018-05-03T10:18:26.053Z,37.63
2018-05-03T10:19:25.857Z,37.90
2018-05-03T10:20:27.251Z,38.17
2018-05-03T10:21:26.445Z,38.71
2018-05-03T10:22:26.343Z,40.15
2018-05-03T10:23:26.805Z,40.59
2018-05-03T10:24:26.567Z,41.54
2018-05-03T10:25:47.003Z,42.29
2018-05-03T10:26:48.260Z,42.85
2018-05-03T10:27:47.491Z,43.43
2018-05-03T10:28:47.475Z,43.43
2018-05-03T10:29:47.364Z,43.93
2018-05-03T10:30:47.198Z,44.97
2018-05-03T10:32:07.990Z,44.49
2018-05-03T10:33:08.772Z,43.08
2018-05-03T10:34:09.672Z,41.48
2018-05-03T10:35:09.092Z,41.39
2018-05-03T10:36:08.447Z,41.39
2018-05-03T10:37:08.668Z,41.50
2018-05-03T10:38:08.470Z,40.84
2018-05-03T10:39:29.228Z,40.17
2018-05-03T10:40:29.536Z,40.36
2018-05-03T10:41:29.766Z,40.11
2018-05-03T10:42:29.598Z,39.47
2018-05-03T10:43:29.536Z,38.15
2018-05-03T10:44:29.683Z,37.30
2018-05-03T10:45:29.821Z,38.17
2018-05-03T10:46:29.973Z,38.23
2018-05-03T10:47:29.691Z,39.06
2018-05-03T10:48:29.576Z,40.08
2018-05-03T10:49:29.540Z,39.70
2018-05-03T10:50:29.654Z,38.44
2018-05-03T10:51:29.450Z,38.91
2018-05-03T10:52:50.511Z,38.60
2018-05-03T10:53:51.138Z,38.64
2018-05-03T10:54:51.182Z,38.95
2018-05-03T10:56:54.615Z,35.27
2018-05-03T10:58:14.439Z,36.44
2018-05-03T10:59:15.296Z,37.10
2018-05-03T11:00:15.546Z,36.34
2018-05-03T11:01:15.364Z,36.42
2018-05-03T11:02:16.286Z,36.63
2018-05-03T11:03:15.445Z,36.54
2018-05-03T11:04:15.373Z,36.71
2018-05-03T11:05:15.209Z,37.57
2018-05-03T11:06:14.868Z,37.66
2018-05-03T11:07:14.740Z,37.88
2018-05-03T11:08:14.933Z,36.61
2018-05-03T11:09:15.513Z,35.72
2018-05-03T11:10:15.377Z,37.28
2018-05-03T11:11:15.753Z,37.68
2018-05-03T11:12:15.000Z,37.30
2018-05-03T11:13:15.289Z,36.83
2018-05-03T11:14:36.120Z,35.08
2018-05-03T11:15:37.272Z,34.42
2018-05-03T11:16:36.634Z,35.13
2018-05-03T11:17:36.891Z,35.33
2018-05-03T11:18:37.083Z,34.14
2018-05-03T11:19:37.390Z,35.02
2018-05-03T11:20:36.328Z,36.36
2018-05-03T11:21:57.379Z,36.44
2018-05-03T11:22:57.090Z,35.76
2018-05-03T11:23:57.969Z,36.48
2018-05-03T11:24:58.206Z,37.61
2018-05-03T11:26:39.983Z,39.78
2018-05-03T11:27:39.864Z,41.70
2018-05-03T11:28:39.796Z,42.70
2018-05-03T11:29:40.005Z,43.64
2018-05-03T11:30:40.785Z,44.51
2018-05-03T11:31:41.466Z,43.93
2018-05-03T11:32:39.744Z,42.89
2018-05-03T11:34:00.996Z,41.79
2018-05-03T11:35:21.750Z,40.84
2018-05-03T11:36:22.985Z,41.64
2018-05-03T11:37:22.255Z,40.38
2018-05-03T11:38:43.718Z,39.41
2018-05-03T11:39:43.397Z,38.66
2018-05-03T11:40:44.722Z,37.51
2018-05-03T11:41:43.995Z,37.15
2018-05-03T11:42:44.536Z,35.88
2018-05-03T11:43:44.371Z,36.08
2018-05-03T11:44:44.308Z,36.85
2018-05-03T11:45:44.377Z,37.81
2018-05-03T11:46:44.623Z,38.56
2018-05-03T11:47:44.377Z,38.81
2018-05-03T11:48:45.208Z,39.45
2018-05-03T11:49:43.956Z,40.77
2018-05-03T11:50:43.896Z,40.88
2018-05-03T11:51:44.170Z,39.95
2018-05-03T11:53:08.766Z,39.90
2018-05-03T11:54:05.952Z,39.82
2018-05-03T11:55:06.160Z,38.87
2018-05-03T11:56:05.527Z,39.76
2018-05-03T11:57:06.321Z,38.58
2018-05-03T11:58:05.828Z,38.21
2018-05-03T11:59:06.173Z,36.00
2018-05-03T12:00:05.983Z,35.61
2018-05-03T12:01:06.390Z,36.60
2018-05-03T12:02:05.477Z,36.81
2018-05-03T12:03:05.205Z,36.81
2018-05-03T12:04:05.317Z,35.47
2018-05-03T12:05:05.206Z,34.69
2018-05-03T12:06:05.630Z,35.27
2018-05-03T12:07:05.916Z,34.95
2018-05-03T12:08:05.786Z,34.67
2018-05-03T12:09:28.284Z,36.22
2018-05-03T12:10:28.191Z,35.49
2018-05-03T12:11:28.309Z,35.49
2018-05-03T12:12:28.448Z,35.02
2018-05-03T12:13:34.180Z,34.06
2018-05-03T12:14:28.536Z,33.20
2018-05-03T12:16:10.883Z,32.71
2018-05-03T12:17:12.073Z,33.23
2018-05-03T12:18:32.210Z,31.54
2018-05-03T12:19:53.781Z,32.21
2018-05-03T12:20:54.380Z,32.28
2018-05-03T12:21:55.469Z,33.36
2018-05-03T12:23:57.239Z,34.52
2018-05-03T12:24:57.220Z,34.98
2018-05-03T12:25:57.583Z,35.25
2018-05-03T12:26:57.690Z,35.61
2018-05-03T12:27:58.429Z,35.88
2018-05-03T12:28:57.973Z,36.62
2018-05-03T12:29:57.074Z,37.38
2018-05-03T12:30:57.241Z,38.21
2018-05-03T12:32:18.978Z,39.14
2018-05-03T12:33:18.115Z,41.05
2018-05-03T12:34:18.418Z,41.81
2018-05-03T12:35:18.464Z,42.00
2018-05-03T12:36:18.705Z,41.60
2018-05-03T12:37:19.141Z,41.69
2018-05-03T12:38:18.631Z,41.57
2018-05-03T12:39:40.608Z,42.71
2018-05-03T12:40:40.777Z,42.80
2018-05-03T12:41:40.153Z,43.46
2018-05-03T12:42:40.345Z,44.81
2018-05-03T12:43:40.758Z,44.40
2018-05-03T12:45:01.725Z,45.17
2018-05-03T12:46:02.128Z,44.59
2018-05-03T12:47:22.878Z,45.05
2018-05-03T12:48:24.244Z,45.73
2018-05-03T12:49:22.967Z,43.82
2018-05-03T12:50:44.015Z,43.55
2018-05-03T12:51:44.385Z,43.27
2018-05-03T12:52:44.638Z,43.29
2018-05-03T12:54:08.138Z,43.12
2018-05-03T12:55:26.744Z,43.54
2018-05-03T12:56:47.789Z,42.79
2018-05-03T12:58:29.980Z,40.96
2018-05-03T12:59:30.677Z,40.67
2018-05-03T13:00:29.715Z,40.47
2018-05-03T13:01:31.432Z,40.20
2018-05-03T13:02:30.658Z,40.71
2018-05-03T13:03:29.989Z,40.32
2018-05-03T13:04:30.197Z,41.58
2018-05-03T13:05:30.160Z,41.00
2018-05-03T13:06:30.136Z,38.97
2018-05-03T13:07:30.167Z,39.36
2018-05-03T13:08:51.887Z,39.16
2018-05-03T13:09:52.493Z,38.68
2018-05-03T13:10:51.667Z,38.41
2018-05-03T13:11:51.643Z,37.55
2018-05-03T13:12:51.847Z,37.09
2018-05-03T13:13:51.748Z,35.75
2018-05-03T13:14:51.979Z,33.33
2018-05-03T13:15:51.819Z,33.52
2018-05-03T13:16:51.852Z,34.47
2018-05-03T13:17:51.632Z,34.65
2018-05-03T13:19:12.429Z,36.18
2018-05-03T13:20:12.837Z,37.24
2018-05-03T13:21:12.871Z,38.89
2018-05-03T13:22:13.311Z,38.13
2018-05-03T13:23:12.260Z,37.46
2018-05-03T13:24:12.417Z,37.46
2018-05-03T13:25:12.550Z,37.07
2018-05-03T13:26:12.570Z,38.35
2018-05-03T13:27:33.571Z,35.85
2018-05-03T13:28:34.898Z,37.21
2018-05-03T13:29:56.415Z,36.93
2018-05-03T13:31:17.647Z,34.62
2018-05-03T13:32:18.348Z,32.87
2018-05-03T13:33:39.711Z,33.38
2018-05-03T13:34:41.126Z,33.26
2018-05-03T13:35:40.532Z,34.06
2018-05-03T13:36:41.011Z,33.57
2018-05-03T13:38:01.724Z,33.75
2018-05-03T13:39:02.456Z,35.66